Time;durP1;ratioP1;P1;durP2;ratioP2;P2;SDS_P1;SDS_P2;PMS_P1;PMS_P2;Temp;Humidity;BMP_temperature;BMP_pressure;BME280_temperature;BME280_humidity;BME280_pressure;Samples;Min_cycle;Max_cycle;Signal;HPM_P1;HPM_P2
2021/03/11 00:00:13;;;;;;;19.07;12.87;;;7.80;99.90;;;;;;4972971;28;20190;-76
2021/03/11 00:02:39;;;;;;;19.60;12.93;;;7.80;99.90;;;;;;4973207;28;20181;-75
2021/03/11 00:05:08;;;;;;;20.13;14.07;;;7.80;99.90;;;;;;4972905;28;20449;-75
2021/03/11 00:07:33;;;;;;;18.50;13.30;;;7.80;99.90;;;;;;4971852;28;20575;-76
2021/03/11 00:09:59;;;;;;;16.90;12.50;;;7.90;99.90;;;;;;4971578;28;20523;-76
2021/03/11 00:12:25;;;;;;;18.37;13.30;;;7.90;99.90;;;;;;4959216;28;20215;-76
2021/03/11 00:14:51;;;;;;;20.83;13.27;;;7.90;99.90;;;;;;4972602;28;20226;-76
2021/03/11 00:17:16;;;;;;;19.90;11.57;;;7.90;99.90;;;;;;4955546;28;20600;-76
2021/03/11 00:19:44;;;;;;;16.80;11.97;;;8.00;99.90;;;;;;4972246;28;20918;-76
2021/03/11 00:22:10;;;;;;;18.70;13.30;;;8.10;99.90;;;;;;4955459;28;20178;-76
2021/03/11 00:24:36;;;;;;;14.47;12.10;;;8.10;99.90;;;;;;4962357;28;20425;-77
2021/03/11 00:27:02;;;;;;;19.93;13.70;;;8.10;99.90;;;;;;4939228;28;20452;-76
2021/03/11 00:29:28;;;;;;;14.50;10.80;;;8.20;99.90;;;;;;4971114;28;20177;-76
2021/03/11 00:31:54;;;;;;;21.30;11.87;;;8.10;99.90;;;;;;4971475;28;20989;-76
2021/03/11 00:34:20;;;;;;;21.47;13.27;;;8.10;99.90;;;;;;4973031;28;20452;-76
2021/03/11 00:36:45;;;;;;;17.57;12.30;;;8.20;99.90;;;;;;4954225;28;20448;-77
2021/03/11 00:39:11;;;;;;;18.20;12.43;;;8.20;99.90;;;;;;4971261;28;20181;-77
2021/03/11 00:41:37;;;;;;;22.37;12.87;;;8.30;99.90;;;;;;4969475;28;20189;-76
2021/03/11 00:44:02;;;;;;;16.67;11.20;;;8.20;99.90;;;;;;4972524;28;20185;-76
2021/03/11 00:46:28;;;;;;;23.27;13.20;;;8.20;99.90;;;;;;4964835;28;20514;-76
2021/03/11 00:48:53;;;;;;;16.73;13.03;;;8.10;99.90;;;;;;4970631;28;20181;-77
2021/03/11 00:51:19;;;;;;;16.70;12.43;;;8.10;99.90;;;;;;4972170;28;20193;-76
2021/03/11 00:53:44;;;;;;;16.63;11.53;;;8.20;99.90;;;;;;4968871;28;20260;-78
2021/03/11 00:56:10;;;;;;;14.07;10.13;;;8.30;99.90;;;;;;4960904;28;20695;-76
2021/03/11 00:58:35;;;;;;;17.67;11.03;;;8.30;99.90;;;;;;4959802;28;20181;-76
2021/03/11 01:01:01;;;;;;;18.10;10.90;;;8.30;99.90;;;;;;4970791;28;20199;-77
2021/03/11 01:03:27;;;;;;;13.90;10.27;;;8.30;99.90;;;;;;4970736;28;20182;-76
2021/03/11 01:05:53;;;;;;;14.00;11.37;;;8.40;99.90;;;;;;4972209;28;20734;-77
2021/03/11 01:08:19;;;;;;;23.73;12.20;;;8.40;99.90;;;;;;4971254;28;20209;-77
2021/03/11 01:10:44;;;;;;;15.60;10.13;;;8.40;99.90;;;;;;4966672;28;20992;-77
2021/03/11 01:13:10;;;;;;;15.50;9.87;;;8.40;99.90;;;;;;4970013;28;20187;-77
2021/03/11 01:15:38;;;;;;;18.20;10.30;;;8.40;99.90;;;;;;4970963;28;20184;-78
2021/03/11 01:18:05;;;;;;;12.50;8.90;;;8.40;99.90;;;;;;4954851;28;20198;-78
2021/03/11 01:20:30;;;;;;;13.33;8.93;;;8.40;99.90;;;;;;4971185;28;20432;-77
2021/03/11 01:22:56;;;;;;;12.57;9.60;;;8.50;99.90;;;;;;4972177;28;20822;-77
2021/03/11 01:25:21;;;;;;;16.43;9.80;;;8.40;99.90;;;;;;4956267;28;20185;-77
2021/03/11 01:27:47;;;;;;;11.73;8.00;;;8.40;99.90;;;;;;4971390;28;20201;-76
2021/03/11 01:30:13;;;;;;;10.27;8.07;;;8.50;99.90;;;;;;4971158;28;20205;-76
2021/03/11 01:32:39;;;;;;;9.83;7.90;;;8.50;99.90;;;;;;4971569;28;20545;-76
2021/03/11 01:35:05;;;;;;;10.87;7.17;;;8.50;99.90;;;;;;4971358;28;20428;-76
2021/03/11 01:37:31;;;;;;;7.93;6.27;;;8.50;99.90;;;;;;4970677;28;20205;-77
2021/03/11 01:39:56;;;;;;;8.37;5.83;;;8.60;99.90;;;;;;4957255;28;20802;-77
2021/03/11 01:42:22;;;;;;;6.50;5.47;;;8.60;99.90;;;;;;4975832;28;20204;-77
2021/03/11 01:44:47;;;;;;;6.60;5.00;;;8.60;99.90;;;;;;4977986;28;20221;-78
2021/03/11 01:47:13;;;;;;;6.20;5.20;;;8.60;99.90;;;;;;4960006;28;20197;-78
2021/03/11 01:49:38;;;;;;;5.57;5.03;;;8.60;99.90;;;;;;4977404;28;20185;-77
2021/03/11 01:52:05;;;;;;;5.20;4.07;;;8.60;99.90;;;;;;4973706;28;20216;-77
2021/03/11 01:54:32;;;;;;;5.30;4.80;;;8.60;99.90;;;;;;4957971;28;20268;-77
2021/03/11 01:56:59;;;;;;;4.73;3.93;;;8.60;99.90;;;;;;4972881;28;20521;-77
2021/03/11 01:59:25;;;;;;;4.17;3.33;;;8.70;99.90;;;;;;4975657;28;20428;-76
2021/03/11 02:01:51;;;;;;;4.17;3.73;;;8.60;99.90;;;;;;4976082;28;20467;-77
2021/03/11 02:04:17;;;;;;;4.00;3.60;;;8.60;99.90;;;;;;4977428;28;20197;-77
2021/03/11 02:06:43;;;;;;;6.70;4.57;;;8.60;99.90;;;;;;4973998;28;20457;-77
2021/03/11 02:09:08;;;;;;;4.50;3.70;;;8.60;99.90;;;;;;4974229;28;20189;-77
2021/03/11 02:11:38;;;;;;;3.70;3.40;;;8.60;99.90;;;;;;4977181;28;20209;-78
2021/03/11 02:14:16;;;;;;;3.97;3.50;;;8.60;99.90;;;;;;4973403;28;20178;-78
2021/03/11 02:16:47;;;;;;;4.80;3.70;;;8.70;99.90;;;;;;4975548;28;20484;-77
2021/03/11 02:19:39;;;;;;;5.43;3.63;;;8.60;99.90;;;;;;4973502;28;20425;-77
2021/03/11 02:22:09;;;;;;;5.50;3.70;;;8.70;99.90;;;;;;4955707;28;20441;-76
2021/03/11 02:24:50;;;;;;;3.67;3.33;;;8.60;99.90;;;;;;4974795;28;20441;-77
2021/03/11 02:27:29;;;;;;;4.20;3.80;;;8.60;99.90;;;;;;4969485;28;20445;-77
2021/03/11 02:29:56;;;;;;;4.17;3.77;;;8.60;99.90;;;;;;4959129;28;20452;-77
2021/03/11 02:32:23;;;;;;;4.93;3.23;;;8.50;99.90;;;;;;4959104;28;20553;-78
2021/03/11 02:34:54;;;;;;;4.60;4.20;;;8.60;99.90;;;;;;4968344;28;20417;-78
2021/03/11 02:37:30;;;;;;;4.93;3.50;;;8.50;99.90;;;;;;4974385;28;20452;-78
2021/03/11 02:40:01;;;;;;;5.17;4.30;;;8.60;99.90;;;;;;4975369;28;20433;-78
2021/03/11 02:42:27;;;;;;;4.73;3.60;;;8.50;99.90;;;;;;4974260;28;20429;-77
2021/03/11 02:44:54;;;;;;;3.70;3.20;;;8.60;99.90;;;;;;4965952;28;20429;-77
2021/03/11 02:47:20;;;;;;;4.70;3.53;;;8.70;99.90;;;;;;4970723;28;20443;-77
2021/03/11 02:49:47;;;;;;;3.73;3.43;;;8.70;99.90;;;;;;4962941;28;20782;-77
2021/03/11 02:52:14;;;;;;;3.70;3.40;;;8.70;99.90;;;;;;4964277;28;20462;-77
2021/03/11 02:54:41;;;;;;;4.47;3.30;;;8.70;99.90;;;;;;4967525;28;20413;-77
2021/03/11 02:57:10;;;;;;;4.57;3.90;;;8.60;99.90;;;;;;4978439;28;20926;-79
2021/03/11 02:59:36;;;;;;;4.80;4.10;;;8.60;99.90;;;;;;4953850;29;20414;-78
2021/03/11 03:02:04;;;;;;;4.03;3.63;;;8.60;99.90;;;;;;4969409;28;20432;-77
2021/03/11 03:04:30;;;;;;;3.33;2.90;;;8.60;99.90;;;;;;4972550;28;20477;-77
2021/03/11 03:07:00;;;;;;;4.43;3.63;;;8.60;99.90;;;;;;4974338;28;20437;-77
2021/03/11 03:09:26;;;;;;;3.93;3.30;;;8.60;99.90;;;;;;4973738;28;20428;-77
2021/03/11 03:11:54;;;;;;;5.30;3.20;;;8.60;99.90;;;;;;4957142;28;20445;-77
2021/03/11 03:14:21;;;;;;;5.30;4.10;;;8.60;99.90;;;;;;4974261;28;20448;-77
2021/03/11 03:16:47;;;;;;;4.90;3.10;;;8.50;99.90;;;;;;4974406;28;20429;-77
2021/03/11 03:19:13;;;;;;;3.70;3.10;;;8.60;99.90;;;;;;4974090;28;20425;-77
2021/03/11 03:21:42;;;;;;;4.03;3.60;;;8.60;99.90;;;;;;4976935;28;20471;-78
2021/03/11 03:24:11;;;;;;;4.60;4.07;;;8.60;99.90;;;;;;4974386;28;20440;-78
2021/03/11 03:26:37;;;;;;;3.70;2.67;;;8.60;99.90;;;;;;4953297;28;20461;-76
2021/03/11 03:29:04;;;;;;;9.00;4.20;;;8.60;99.90;;;;;;4962268;28;20997;-77
2021/03/11 03:31:30;;;;;;;3.87;3.20;;;8.70;99.90;;;;;;4969333;28;20260;-77
2021/03/11 03:33:56;;;;;;;5.03;3.40;;;8.70;99.90;;;;;;4974047;28;20413;-77
2021/03/11 03:36:21;;;;;;;3.30;2.97;;;8.70;99.90;;;;;;4956626;28;20445;-77
2021/03/11 03:38:47;;;;;;;4.27;3.10;;;8.70;99.90;;;;;;4972579;28;20173;-78
2021/03/11 03:41:13;;;;;;;3.73;3.10;;;8.70;99.90;;;;;;4974484;28;20253;-78
2021/03/11 03:43:40;;;;;;;5.20;3.20;;;8.60;99.90;;;;;;4971989;28;20648;-78
2021/03/11 03:46:11;;;;;;;4.87;3.97;;;8.60;99.90;;;;;;4947732;28;20867;-77
2021/03/11 03:48:45;;;;;;;5.70;4.10;;;8.60;99.90;;;;;;4969039;28;20927;-77
2021/03/11 03:51:12;;;;;;;6.10;3.80;;;8.50;99.90;;;;;;4967977;28;20565;-77
2021/03/11 03:53:43;;;;;;;4.03;3.53;;;8.60;99.90;;;;;;4959298;28;20460;-77
2021/03/11 03:56:24;;;;;;;4.30;3.60;;;8.50;99.90;;;;;;4973226;28;20421;-78
2021/03/11 03:58:56;;;;;;;4.50;2.93;;;8.60;99.90;;;;;;4956132;28;20508;-77
2021/03/11 04:01:24;;;;;;;5.37;3.67;;;8.70;99.90;;;;;;4973384;28;20415;-77
2021/03/11 04:03:50;;;;;;;4.37;3.97;;;8.70;99.90;;;;;;4972188;28;20524;-77
2021/03/11 04:06:16;;;;;;;4.83;3.67;;;8.70;99.90;;;;;;4973579;28;20487;-77
2021/03/11 04:08:44;;;;;;;4.10;3.67;;;8.70;99.90;;;;;;4973437;28;20429;-77
2021/03/11 04:11:10;;;;;;;5.03;4.27;;;8.70;99.90;;;;;;4972922;28;20825;-77
2021/03/11 04:13:36;;;;;;;5.70;4.00;;;8.80;99.90;;;;;;4973561;28;20857;-78
2021/03/11 04:16:02;;;;;;;5.90;4.50;;;8.80;99.90;;;;;;4976480;28;20421;-78
2021/03/11 04:18:27;;;;;;;5.70;4.03;;;8.80;99.90;;;;;;4974290;28;20416;-77
2021/03/11 04:20:55;;;;;;;3.43;3.13;;;8.80;99.90;;;;;;4972950;28;20421;-78
2021/03/11 04:23:21;;;;;;;5.97;4.40;;;8.80;99.90;;;;;;4973332;28;20205;-77
2021/03/11 04:25:46;;;;;;;4.30;3.77;;;8.80;99.90;;;;;;4959222;28;20513;-78
2021/03/11 04:28:12;;;;;;;5.03;4.30;;;8.70;99.90;;;;;;4976339;28;21196;-77
2021/03/11 04:30:39;;;;;;;4.80;4.30;;;8.70;99.90;;;;;;4974448;28;20201;-78
2021/03/11 04:33:05;;;;;;;4.90;3.67;;;8.70;99.90;;;;;;4959368;28;20488;-78
2021/03/11 04:35:31;;;;;;;4.30;3.50;;;8.80;99.90;;;;;;4956662;28;20417;-77
2021/03/11 04:37:57;;;;;;;4.40;2.97;;;8.80;99.90;;;;;;4973102;28;20439;-77
2021/03/11 04:40:23;;;;;;;4.47;3.27;;;8.80;99.90;;;;;;4955050;28;20205;-77
2021/03/11 04:42:49;;;;;;;4.23;3.13;;;8.80;99.90;;;;;;4972936;28;20512;-77
2021/03/11 04:45:15;;;;;;;4.60;3.40;;;8.80;99.90;;;;;;4972409;28;20970;-77
2021/03/11 04:47:41;;;;;;;5.47;3.13;;;8.80;99.90;;;;;;4972473;28;20440;-77
2021/03/11 04:50:08;;;;;;;3.10;2.80;;;8.80;99.90;;;;;;4971914;28;20192;-77
2021/03/11 04:52:35;;;;;;;4.07;3.67;;;8.90;99.90;;;;;;4972631;28;20433;-77
2021/03/11 04:55:01;;;;;;;3.20;2.70;;;8.90;99.90;;;;;;4972703;28;20445;-77
2021/03/11 04:57:28;;;;;;;2.73;2.50;;;8.80;99.90;;;;;;4971876;28;20429;-77
2021/03/11 04:59:57;;;;;;;4.27;3.07;;;8.90;99.90;;;;;;4972331;28;20431;-77
2021/03/11 05:02:29;;;;;;;2.93;2.70;;;8.90;99.90;;;;;;4974001;28;20432;-78
2021/03/11 05:04:55;;;;;;;2.67;2.30;;;8.90;99.90;;;;;;4976583;28;20486;-78
2021/03/11 05:07:20;;;;;;;3.47;3.10;;;9.00;99.90;;;;;;4957536;28;20794;-78
2021/03/11 05:09:46;;;;;;;4.17;2.80;;;9.00;99.90;;;;;;4972722;28;20444;-77
2021/03/11 05:12:12;;;;;;;4.40;2.57;;;9.00;99.90;;;;;;4972968;28;20213;-77
2021/03/11 05:14:37;;;;;;;3.47;2.70;;;9.00;99.90;;;;;;4974019;28;20208;-77
2021/03/11 05:17:03;;;;;;;3.10;2.60;;;8.90;99.90;;;;;;4970236;28;20291;-77
2021/03/11 05:19:28;;;;;;;3.03;2.73;;;9.00;99.90;;;;;;4975598;28;20188;-78
2021/03/11 05:21:54;;;;;;;3.33;2.57;;;9.10;99.90;;;;;;4976516;28;20181;-77
2021/03/11 05:24:19;;;;;;;3.33;3.03;;;9.10;99.90;;;;;;4974343;28;20182;-77
2021/03/11 05:26:45;;;;;;;3.77;3.40;;;9.10;99.90;;;;;;4968577;28;20224;-77
2021/03/11 05:29:10;;;;;;;3.63;3.17;;;9.00;99.90;;;;;;4974103;28;20268;-77
2021/03/11 05:31:36;;;;;;;3.30;3.00;;;9.20;99.90;;;;;;4976488;28;20205;-77
2021/03/11 05:34:01;;;;;;;3.60;3.30;;;9.30;99.90;;;;;;4971443;28;20170;-77
2021/03/11 05:36:27;;;;;;;4.20;3.20;;;9.20;99.90;;;;;;4974572;28;20201;-77
2021/03/11 05:38:52;;;;;;;9.60;3.70;;;9.30;99.90;;;;;;4977932;28;20181;-78
2021/03/11 05:41:21;;;;;;;3.67;2.83;;;9.40;99.90;;;;;;4977710;28;20185;-77
2021/03/11 05:43:50;;;;;;;4.37;3.50;;;9.40;99.90;;;;;;4975167;28;20181;-77
2021/03/11 05:46:17;;;;;;;3.43;3.13;;;9.40;99.90;;;;;;4968278;28;20429;-77
2021/03/11 05:48:43;;;;;;;3.30;2.80;;;9.50;99.90;;;;;;4973438;28;20429;-77
2021/03/11 05:51:09;;;;;;;4.47;3.90;;;9.50;99.90;;;;;;4974788;28;20548;-77
2021/03/11 05:53:36;;;;;;;6.47;4.70;;;9.50;99.90;;;;;;4956598;28;21005;-77
2021/03/11 05:56:02;;;;;;;5.70;4.20;;;9.50;99.90;;;;;;4961272;28;20261;-78
2021/03/11 05:58:28;;;;;;;4.30;3.70;;;9.60;99.90;;;;;;4977393;28;20433;-78
2021/03/11 06:00:53;;;;;;;6.00;4.30;;;9.60;99.90;;;;;;4977743;28;21245;-78
2021/03/11 06:03:23;;;;;;;3.60;3.30;;;9.70;99.90;;;;;;4976601;28;20182;-77
2021/03/11 06:05:50;;;;;;;4.10;3.63;;;9.60;99.90;;;;;;4974885;28;20295;-77
2021/03/11 06:08:21;;;;;;;4.63;3.67;;;9.70;99.90;;;;;;4966075;28;21580;-78
2021/03/11 06:10:46;;;;;;;7.73;3.57;;;9.80;99.90;;;;;;4973770;28;20518;-77
2021/03/11 06:13:12;;;;;;;5.50;3.50;;;9.90;99.90;;;;;;4974477;28;21032;-77
2021/03/11 06:15:39;;;;;;;4.63;3.57;;;9.90;99.90;;;;;;4973069;28;20178;-77
2021/03/11 06:18:07;;;;;;;4.20;3.60;;;10.00;99.90;;;;;;4957887;28;20271;-77
2021/03/11 06:20:33;;;;;;;4.90;3.67;;;10.00;99.90;;;;;;4971193;28;20432;-78
2021/03/11 06:22:58;;;;;;;3.90;3.50;;;10.10;99.90;;;;;;4950641;28;20437;-77
2021/03/11 06:25:26;;;;;;;4.73;3.90;;;10.10;99.90;;;;;;4963025;28;20436;-78
2021/03/11 06:27:52;;;;;;;3.43;3.00;;;10.10;99.90;;;;;;4975506;28;20213;-77
2021/03/11 06:30:35;;;;;;;4.30;3.40;;;10.10;99.90;;;;;;4957333;28;20462;-78
2021/03/11 06:33:03;;;;;;;3.53;3.23;;;10.20;99.90;;;;;;4978500;28;20173;-77
2021/03/11 06:35:29;;;;;;;3.83;3.10;;;10.20;99.90;;;;;;4958331;28;20508;-77
2021/03/11 06:37:55;;;;;;;4.37;3.27;;;10.10;99.90;;;;;;4974702;28;20478;-78
2021/03/11 06:40:26;;;;;;;3.53;3.20;;;10.20;99.90;;;;;;4973183;28;21014;-77
2021/03/11 06:43:07;;;;;;;4.60;3.20;;;10.20;99.90;;;;;;4974600;28;20441;-77
2021/03/11 06:45:33;;;;;;;4.53;3.37;;;10.30;99.90;;;;;;4973735;28;20469;-77
2021/03/11 06:48:24;;;;;;;3.93;2.70;;;10.30;99.90;;;;;;4975239;28;20455;-77
2021/03/11 06:50:50;;;;;;;3.40;3.10;;;10.30;99.90;;;;;;4974057;28;20555;-77
2021/03/11 06:53:16;;;;;;;4.67;3.47;;;10.30;99.90;;;;;;4976128;28;20480;-77
2021/03/11 06:55:41;;;;;;;3.30;2.90;;;10.40;99.90;;;;;;4960793;28;20433;-77
2021/03/11 06:58:26;;;;;;;2.80;2.50;;;10.40;99.90;;;;;;4974282;28;20268;-78
2021/03/11 07:01:08;;;;;;;3.80;2.63;;;10.40;99.90;;;;;;4965330;28;20178;-78
2021/03/11 07:03:43;;;;;;;4.47;2.77;;;10.40;99.90;;;;;;4975839;28;20401;-76
2021/03/11 07:06:10;;;;;;;3.63;3.13;;;10.40;99.90;;;;;;4976189;28;20521;-78
2021/03/11 07:08:47;;;;;;;3.07;2.77;;;10.50;99.90;;;;;;4969014;28;20980;-77
2021/03/11 07:11:13;;;;;;;2.97;2.67;;;10.50;99.90;;;;;;4967464;28;20477;-76
2021/03/11 07:13:39;;;;;;;3.77;2.50;;;10.50;99.90;;;;;;4967036;28;20430;-78
2021/03/11 07:16:20;;;;;;;5.10;3.07;;;10.60;99.90;;;;;;4969274;28;20186;-78
2021/03/11 07:18:48;;;;;;;2.50;2.13;;;10.60;99.90;;;;;;4966273;28;20467;-78
2021/03/11 07:21:14;;;;;;;3.70;2.47;;;10.70;99.90;;;;;;4974530;28;20530;-77
2021/03/11 07:23:47;;;;;;;2.13;1.93;;;10.70;99.90;;;;;;4973906;28;20524;-77
2021/03/11 07:26:13;;;;;;;2.90;2.30;;;10.80;99.90;;;;;;4970179;28;20181;-77
2021/03/11 07:28:38;;;;;;;2.90;2.50;;;10.80;99.90;;;;;;4973310;28;21033;-77
2021/03/11 07:31:04;;;;;;;3.77;2.90;;;10.80;99.90;;;;;;4969219;28;20544;-78
2021/03/11 07:33:32;;;;;;;2.67;2.40;;;10.80;99.90;;;;;;4971556;28;20204;-77
2021/03/11 07:35:59;;;;;;;3.47;2.77;;;10.80;99.90;;;;;;4972113;28;20654;-77
2021/03/11 07:38:27;;;;;;;3.73;3.03;;;10.80;99.90;;;;;;4973090;28;20433;-78
2021/03/11 07:40:54;;;;;;;3.20;2.90;;;10.80;99.90;;;;;;4972920;28;20440;-78
2021/03/11 07:43:21;;;;;;;4.33;2.93;;;10.80;99.90;;;;;;4973387;28;20463;-77
2021/03/11 07:45:47;;;;;;;4.50;2.67;;;10.90;99.90;;;;;;4972670;28;20425;-77
2021/03/11 07:48:14;;;;;;;4.13;2.80;;;10.90;99.90;;;;;;4971978;28;20496;-78
2021/03/11 07:50:41;;;;;;;3.63;3.20;;;11.00;99.90;;;;;;4969629;28;20481;-78
2021/03/11 07:53:07;;;;;;;3.53;2.60;;;11.20;99.90;;;;;;4966646;28;20445;-78
2021/03/11 07:55:34;;;;;;;2.87;2.57;;;11.20;99.90;;;;;;4969470;28;20429;-78
2021/03/11 07:58:05;;;;;;;3.10;2.30;;;11.30;99.90;;;;;;4973274;28;20535;-77
2021/03/11 08:00:31;;;;;;;3.70;2.50;;;11.20;99.90;;;;;;4973111;28;20432;-78
2021/03/11 08:03:14;;;;;;;3.70;2.40;;;11.20;99.90;;;;;;4973155;28;20441;-77
2021/03/11 08:05:40;;;;;;;2.63;2.27;;;11.30;99.90;;;;;;4972695;28;20177;-77
2021/03/11 08:08:14;;;;;;;3.87;3.07;;;11.50;99.90;;;;;;4972599;28;20507;-77
2021/03/11 08:10:45;;;;;;;3.57;2.83;;;11.60;99.90;;;;;;4971055;28;20999;-76
2021/03/11 08:13:31;;;;;;;3.83;2.93;;;11.60;99.90;;;;;;4955558;28;20989;-76
2021/03/11 08:15:59;;;;;;;5.20;2.97;;;11.50;99.90;;;;;;4962345;28;20436;-76
2021/03/11 08:18:34;;;;;;;3.23;2.70;;;11.50;99.90;;;;;;4971214;28;20434;-76
2021/03/11 08:21:00;;;;;;;6.73;3.40;;;11.40;99.90;;;;;;4955017;28;20902;-78
2021/03/11 08:23:30;;;;;;;2.53;2.33;;;11.40;99.90;;;;;;4972857;28;20437;-76
2021/03/11 08:25:56;;;;;;;6.17;2.70;;;11.40;99.90;;;;;;4972538;28;20447;-76
2021/03/11 08:28:22;;;;;;;5.40;3.60;;;11.50;99.90;;;;;;4972695;28;20514;-77
2021/03/11 08:30:52;;;;;;;3.20;2.30;;;11.60;99.90;;;;;;4949827;28;20486;-77
2021/03/11 08:33:21;;;;;;;3.20;2.40;;;11.50;99.90;;;;;;4972633;28;20184;-76
2021/03/11 08:35:51;;;;;;;3.23;2.83;;;11.50;99.90;;;;;;4972079;28;21052;-77
2021/03/11 08:38:20;;;;;;;5.73;2.77;;;11.40;99.90;;;;;;4955221;28;20870;-76
2021/03/11 08:40:52;;;;;;;4.10;2.50;;;11.20;99.90;;;;;;4956969;28;20471;-77
2021/03/11 08:46:22;;;;;;;2.90;2.70;;;11.10;99.90;;;;;;4971313;28;20512;-75
2021/03/11 08:48:54;;;;;;;5.50;2.40;;;11.10;99.90;;;;;;4975034;28;20492;-76
2021/03/11 08:51:23;;;;;;;4.20;3.03;;;11.10;99.90;;;;;;4958790;28;20875;-76
2021/03/11 08:53:50;;;;;;;2.43;1.97;;;11.00;99.90;;;;;;4957801;28;20438;-76
2021/03/11 08:56:16;;;;;;;2.90;2.53;;;11.10;99.90;;;;;;4975285;28;20568;-76
2021/03/11 08:58:54;;;;;;;3.07;2.80;;;11.10;99.90;;;;;;4965399;28;20528;-76
2021/03/11 09:01:35;;;;;;;3.37;2.63;;;10.90;99.90;;;;;;4973182;28;20335;-76
2021/03/11 09:04:01;;;;;;;3.50;2.63;;;10.90;99.90;;;;;;4971635;28;20421;-75
2021/03/11 09:06:51;;;;;;;3.37;2.93;;;10.80;99.90;;;;;;4971159;28;20472;-77
2021/03/11 09:09:33;;;;;;;4.50;3.10;;;10.80;99.90;;;;;;4967297;28;20935;-76
2021/03/11 09:12:00;;;;;;;5.60;3.27;;;10.90;99.90;;;;;;4952531;28;20479;-76
2021/03/11 09:14:27;;;;;;;2.57;2.27;;;10.90;99.90;;;;;;4965832;28;20421;-76
2021/03/11 09:17:01;;;;;;;5.63;3.10;;;11.00;99.90;;;;;;4950590;28;20433;-77
2021/03/11 09:19:36;;;;;;;3.93;2.60;;;10.90;99.90;;;;;;4950947;28;20440;-77
2021/03/11 09:22:14;;;;;;;9.13;3.30;;;11.20;99.90;;;;;;4955255;28;20431;-77
2021/03/11 09:24:39;;;;;;;11.20;2.70;;;11.00;99.90;;;;;;4968774;28;20449;-76
2021/03/11 09:27:05;;;;;;;12.60;2.83;;;10.50;99.90;;;;;;4965328;28;20480;-77
2021/03/11 09:29:31;;;;;;;9.20;2.80;;;10.10;99.90;;;;;;4966934;28;20265;-76
2021/03/11 09:31:56;;;;;;;5.40;2.33;;;10.10;99.90;;;;;;4966081;28;20520;-76
2021/03/11 09:34:22;;;;;;;11.17;3.43;;;10.00;99.90;;;;;;4971006;28;20181;-76
2021/03/11 09:36:48;;;;;;;6.97;2.87;;;9.90;99.90;;;;;;4948771;28;20186;-78
2021/03/11 09:39:13;;;;;;;11.97;3.80;;;9.90;99.90;;;;;;4971996;28;20189;-78
2021/03/11 09:41:39;;;;;;;14.23;3.70;;;9.90;99.90;;;;;;4959966;28;20179;-76
2021/03/11 09:44:06;;;;;;;12.73;2.90;;;9.90;99.90;;;;;;4965192;28;20169;-76
2021/03/11 09:46:32;;;;;;;11.97;2.37;;;10.00;99.90;;;;;;4967967;28;20202;-76
2021/03/11 09:48:59;;;;;;;14.17;3.47;;;10.10;99.90;;;;;;4971371;28;20507;-77
2021/03/11 09:51:26;;;;;;;13.10;3.20;;;10.30;99.90;;;;;;4975128;28;20525;-77
2021/03/11 09:53:54;;;;;;;8.20;3.23;;;11.30;99.90;;;;;;4956607;29;20499;-77
2021/03/11 09:56:32;;;;;;;14.83;5.23;;;12.10;99.90;;;;;;4956556;28;20426;-77
2021/03/11 09:59:00;;;;;;;6.77;2.80;;;12.10;99.90;;;;;;4955251;28;20432;-76
2021/03/11 10:01:31;;;;;;;15.37;4.00;;;12.40;99.90;;;;;;4960189;28;20432;-77
2021/03/11 10:03:57;;;;;;;10.17;2.97;;;12.80;99.90;;;;;;4973040;28;20429;-74
2021/03/11 10:06:24;;;;;;;7.03;4.43;;;13.40;99.90;;;;;;4983268;28;20455;-75
2021/03/11 10:08:57;;;;;;;10.60;3.60;;;14.00;99.90;;;;;;4990975;28;20416;-74
2021/03/11 10:11:33;;;;;;;6.70;3.40;;;14.30;99.90;;;;;;4977859;28;20547;-75
2021/03/11 10:14:02;;;;;;;10.07;2.80;;;15.00;99.90;;;;;;4974029;28;20417;-75
2021/03/11 10:16:30;;;;;;;11.70;3.20;;;15.10;99.90;;;;;;4975442;28;20440;-75
2021/03/11 10:19:28;;;;;;;6.07;3.07;;;15.00;99.90;;;;;;4974247;28;20472;-75
2021/03/11 10:22:14;;;;;;;6.67;2.70;;;14.90;99.90;;;;;;4951502;28;20429;-74
2021/03/11 10:24:42;;;;;;;6.80;2.40;;;14.80;99.90;;;;;;4974521;28;20451;-75
2021/03/11 10:27:32;;;;;;;4.33;1.97;;;15.40;99.90;;;;;;4974151;28;20477;-76
2021/03/11 10:30:23;;;;;;;5.30;2.17;;;15.60;99.90;;;;;;4966097;28;20422;-76
2021/03/11 10:32:57;;;;;;;8.93;2.50;;;15.50;99.90;;;;;;4975195;28;20428;-76
2021/03/11 10:35:29;;;;;;;5.80;2.73;;;16.10;99.90;;;;;;4957602;28;20425;-76
2021/03/11 10:37:55;;;;;;;5.77;2.40;;;16.10;99.90;;;;;;4969219;28;20433;-75
2021/03/11 10:40:26;;;;;;;9.00;2.27;;;15.70;99.90;;;;;;4965895;28;20425;-75
2021/03/11 10:42:58;;;;;;;3.13;2.07;;;16.40;99.90;;;;;;4966028;28;20409;-76
2021/03/11 10:45:37;;;;;;;11.67;6.30;;;15.80;99.90;;;;;;4963289;28;20508;-77
2021/03/11 10:48:06;;;;;;;4.30;2.47;;;16.10;99.90;;;;;;4964765;28;20441;-77
2021/03/11 10:50:47;;;;;;;8.23;2.60;;;16.50;99.90;;;;;;4965712;28;20453;-76
2021/03/11 10:53:18;;;;;;;4.57;1.73;;;16.70;99.90;;;;;;4964087;28;20429;-75
2021/03/11 10:55:45;;;;;;;6.43;2.20;;;17.30;99.90;;;;;;4966658;28;20886;-76
2021/03/11 10:58:24;;;;;;;4.90;2.33;;;16.70;99.90;;;;;;4946545;28;20475;-76
2021/03/11 11:00:50;;;;;;;5.20;2.00;;;17.00;99.90;;;;;;4963445;28;20469;-75
2021/03/11 11:03:20;;;;;;;4.70;2.97;;;16.80;99.90;;;;;;4965460;28;20492;-75
2021/03/11 11:05:46;;;;;;;7.17;2.50;;;17.20;99.90;;;;;;4966631;28;20178;-77
2021/03/11 11:08:13;;;;;;;8.60;3.33;;;17.60;99.90;;;;;;4964136;28;20468;-77
2021/03/11 11:10:39;;;;;;;9.70;2.70;;;17.20;99.90;;;;;;4966906;28;20483;-75
2021/03/11 11:13:04;;;;;;;9.67;3.13;;;17.30;99.90;;;;;;4955272;28;20422;-75
2021/03/11 11:15:31;;;;;;;9.33;2.57;;;17.70;99.90;;;;;;4974169;28;20660;-77
2021/03/11 11:17:58;;;;;;;15.10;2.57;;;17.80;99.90;;;;;;4973140;28;20200;-75
2021/03/11 11:20:24;;;;;;;17.10;2.87;;;17.60;98.40;;;;;;4979330;28;20427;-75
2021/03/11 11:22:49;;;;;;;10.00;2.87;;;17.60;99.90;;;;;;4969281;28;20922;-75
2021/03/11 11:25:15;;;;;;;10.90;3.63;;;17.20;98.00;;;;;;4984843;28;20236;-75
2021/03/11 11:27:41;;;;;;;9.70;3.00;;;16.80;96.80;;;;;;4977039;28;20205;-75
2021/03/11 11:30:09;;;;;;;6.80;3.07;;;16.70;99.80;;;;;;4981157;28;20185;-75
2021/03/11 11:32:35;;;;;;;8.20;3.37;;;16.40;99.90;;;;;;4969182;28;20699;-75
2021/03/11 11:35:00;;;;;;;11.43;3.13;;;16.20;99.90;;;;;;4954724;29;20485;-76
2021/03/11 11:37:26;;;;;;;15.43;3.17;;;16.30;99.90;;;;;;4961313;28;20229;-76
2021/03/11 11:39:51;;;;;;;26.13;8.13;;;16.50;99.90;;;;;;4952840;28;20286;-75
2021/03/11 11:42:17;;;;;;;11.40;2.63;;;15.90;99.90;;;;;;4965669;28;20166;-76
2021/03/11 11:44:44;;;;;;;11.90;3.63;;;15.20;99.50;;;;;;4968204;28;20178;-75
2021/03/11 11:47:10;;;;;;;10.73;3.43;;;15.30;99.90;;;;;;4963082;28;20190;-74
2021/03/11 11:49:37;;;;;;;11.23;2.60;;;15.70;99.90;;;;;;4964040;28;20393;-75
2021/03/11 11:52:03;;;;;;;14.60;3.60;;;16.00;99.90;;;;;;4964436;28;20464;-77
2021/03/11 11:54:28;;;;;;;11.63;3.40;;;16.80;99.90;;;;;;4968130;28;20413;-75
2021/03/11 11:56:54;;;;;;;24.70;4.40;;;16.50;92.20;;;;;;4965777;28;20429;-75
2021/03/11 11:59:20;;;;;;;14.63;3.30;;;16.60;94.20;;;;;;4951535;28;20209;-76
2021/03/11 12:01:46;;;;;;;19.40;4.90;;;17.10;94.70;;;;;;4951842;28;20181;-75
2021/03/11 12:04:13;;;;;;;13.60;4.37;;;17.20;89.80;;;;;;4968481;28;20437;-75
2021/03/11 12:06:39;;;;;;;11.47;3.53;;;17.10;86.70;;;;;;4978171;28;20424;-75
2021/03/11 12:09:05;;;;;;;13.77;2.90;;;17.50;86.50;;;;;;4971594;28;20962;-75
2021/03/11 12:11:31;;;;;;;24.63;4.73;;;17.60;85.70;;;;;;4965523;28;20596;-75
2021/03/11 12:13:56;;;;;;;15.80;3.73;;;17.40;84.20;;;;;;4949447;28;20421;-75
2021/03/11 12:16:22;;;;;;;17.80;3.90;;;16.20;89.70;;;;;;4963832;28;20186;-75
2021/03/11 12:18:48;;;;;;;16.57;4.70;;;15.60;95.90;;;;;;4962243;28;20181;-76
2021/03/11 12:21:14;;;;;;;20.70;3.87;;;15.20;98.40;;;;;;4963928;28;20248;-76
2021/03/11 12:23:40;;;;;;;10.07;3.43;;;15.80;99.90;;;;;;4964634;28;20868;-75
2021/03/11 12:26:05;;;;;;;10.10;3.30;;;16.10;99.90;;;;;;4963617;28;20499;-75
2021/03/11 12:28:31;;;;;;;11.93;3.20;;;16.10;99.90;;;;;;4963857;28;20170;-75
2021/03/11 12:30:57;;;;;;;7.57;2.47;;;16.00;99.90;;;;;;4944367;28;20531;-75
2021/03/11 12:33:22;;;;;;;13.87;2.70;;;16.10;99.90;;;;;;4972003;28;20919;-78
2021/03/11 12:35:48;;;;;;;13.17;3.53;;;16.10;99.90;;;;;;4968671;28;20181;-76
2021/03/11 12:38:14;;;;;;;9.47;3.00;;;16.10;99.90;;;;;;4972558;28;20193;-77
2021/03/11 12:40:41;;;;;;;15.20;2.97;;;16.10;99.90;;;;;;4970798;28;20701;-77
2021/03/11 12:43:06;;;;;;;12.20;3.10;;;16.10;99.90;;;;;;4963555;28;20476;-75
2021/03/11 12:45:32;;;;;;;14.23;3.00;;;16.10;99.90;;;;;;4972690;28;20421;-77
2021/03/11 12:47:57;;;;;;;14.20;3.80;;;16.20;99.90;;;;;;4972751;28;20272;-76
2021/03/11 12:50:23;;;;;;;9.10;2.53;;;16.60;99.90;;;;;;4972453;28;20257;-76
2021/03/11 12:52:49;;;;;;;8.00;2.57;;;17.00;99.90;;;;;;4963515;28;20552;-76
2021/03/11 12:55:15;;;;;;;11.43;2.53;;;17.00;99.90;;;;;;4953468;29;20171;-77